createdAt,value
2019-05-06T00:02:00.428Z,5.22
2019-05-06T00:04:31.384Z,4.60
2019-05-06T00:07:04.299Z,4.45
2019-05-06T00:09:34.945Z,5.22
2019-05-06T00:12:06.005Z,4.92
2019-05-06T00:14:37.058Z,4.95
2019-05-06T00:17:08.227Z,5.58
2019-05-06T00:19:39.080Z,5.17
2019-05-06T00:22:10.036Z,4.62
2019-05-06T00:24:45.394Z,4.90
2019-05-06T00:27:21.061Z,4.40
2019-05-06T00:29:52.017Z,4.85
2019-05-06T00:32:24.337Z,5.53
2019-05-06T00:34:55.140Z,5.05
2019-05-06T00:37:26.098Z,5.50
2019-05-06T00:39:58.510Z,4.87
2019-05-06T00:42:31.007Z,4.90
2019-05-06T00:45:04.258Z,5.08
2019-05-06T00:47:34.353Z,5.78
2019-05-06T00:50:06.802Z,4.65
2019-05-06T00:52:37.985Z,5.10
2019-05-06T00:55:08.961Z,4.97
2019-05-06T00:57:46.267Z,4.90
2019-05-06T01:00:19.620Z,4.72
2019-05-06T01:02:50.224Z,5.87
2019-05-06T01:05:21.306Z,5.80
2019-05-06T01:07:54.727Z,5.33
2019-05-06T01:10:25.357Z,5.72
2019-05-06T01:12:57.944Z,6.85
2019-05-06T01:15:30.731Z,6.55
2019-05-06T01:18:01.685Z,5.65
2019-05-06T01:20:33.951Z,6.28
2019-05-06T01:23:04.830Z,6.42
2019-05-06T01:25:35.685Z,5.83
2019-05-06T01:28:06.660Z,6.00
2019-05-06T01:30:37.823Z,5.70
2019-05-06T01:33:08.356Z,6.22
2019-05-06T01:35:39.210Z,5.50
2019-05-06T01:38:20.822Z,6.55
2019-05-06T01:41:03.974Z,6.58
2019-05-06T01:43:39.413Z,6.40
2019-05-06T01:46:10.472Z,5.67
2019-05-06T01:48:47.718Z,5.75
2019-05-06T01:51:24.116Z,5.55
2019-05-06T01:53:55.005Z,5.65
2019-05-06T01:56:25.963Z,5.65
2019-05-06T01:58:56.823Z,5.62
2019-05-06T02:01:27.887Z,6.47
2019-05-06T02:03:58.515Z,6.12
2019-05-06T02:06:29.372Z,5.60
2019-05-06T02:09:00.246Z,6.03
2019-05-06T02:11:33.579Z,5.75
2019-05-06T02:14:06.966Z,6.17
2019-05-06T02:16:37.909Z,7.08
2019-05-06T02:19:09.892Z,6.75
2019-05-06T02:21:43.834Z,6.87
2019-05-06T02:24:16.428Z,7.47
2019-05-06T02:26:47.596Z,6.30
2019-05-06T02:29:20.083Z,6.45
2019-05-06T02:31:56.697Z,5.70
2019-05-06T02:34:26.610Z,6.10
2019-05-06T02:37:14.496Z,6.20
2019-05-06T02:39:44.077Z,5.55
2019-05-06T02:42:15.029Z,5.78
2019-05-06T02:44:46.390Z,5.25
2019-05-06T02:47:34.479Z,4.97
2019-05-06T02:50:13.365Z,5.87
2019-05-06T02:52:44.264Z,5.97
2019-05-06T02:55:15.725Z,5.92
2019-05-06T02:57:46.660Z,5.60
2019-05-06T03:00:19.867Z,5.22
2019-05-06T03:02:53.852Z,4.80
2019-05-06T03:05:23.832Z,4.28
2019-05-06T03:07:57.459Z,4.55
2019-05-06T03:10:27.070Z,4.80
2019-05-06T03:12:57.715Z,5.22
2019-05-06T03:15:28.676Z,4.87
2019-05-06T03:17:59.622Z,5.25
2019-05-06T03:20:57.170Z,4.83
2019-05-06T03:23:36.332Z,4.90
2019-05-06T03:26:07.278Z,4.85
2019-05-06T03:28:38.324Z,4.22
2019-05-06T03:31:09.312Z,3.92
2019-05-06T03:34:03.751Z,4.40
2019-05-06T03:36:22.860Z,5.12
2019-05-06T03:38:45.041Z,5.00
2019-05-06T03:41:16.083Z,4.40
2019-05-06T03:43:46.841Z,5.35
2019-05-06T03:46:25.182Z,4.37
2019-05-06T03:49:04.094Z,4.95
2019-05-06T03:51:35.178Z,4.80
2019-05-06T04:01:06.184Z,5.05
2019-05-06T04:03:46.881Z,5.42
2019-05-06T04:06:09.629Z,5.22
2019-05-06T04:08:43.504Z,4.72
2019-05-06T04:11:16.056Z,5.50
2019-05-06T04:13:49.050Z,5.80
2019-05-06T04:16:36.269Z,5.65
2019-05-06T04:19:14.696Z,5.85
2019-05-06T04:21:47.373Z,5.10
2019-05-06T04:24:25.714Z,5.70
2019-05-06T04:27:16.924Z,5.33
2019-05-06T04:29:47.974Z,5.62
2019-05-06T04:32:19.261Z,6.35
2019-05-06T04:34:53.191Z,5.60
2019-05-06T04:37:24.154Z,6.12
2019-05-06T04:39:54.865Z,6.15
2019-05-06T04:42:27.008Z,5.80
2019-05-06T04:44:58.239Z,6.45
2019-05-06T04:47:28.881Z,5.12
2019-05-06T04:50:04.402Z,6.22
2019-05-06T04:52:34.145Z,6.65
2019-05-06T04:55:05.641Z,5.75
2019-05-06T04:57:36.196Z,6.40
2019-05-06T05:00:07.316Z,5.65
2019-05-06T05:02:38.112Z,5.83
2019-05-06T05:05:09.155Z,5.87
2019-05-06T05:07:39.725Z,5.87
2019-05-06T05:10:18.844Z,6.12
2019-05-06T05:12:52.636Z,4.78
2019-05-06T05:15:41.841Z,5.00
2019-05-06T05:18:17.288Z,5.92
2019-05-06T05:20:49.385Z,5.83
2019-05-06T05:23:20.039Z,5.37
2019-05-06T05:25:52.166Z,5.05
2019-05-06T05:28:23.187Z,5.35
2019-05-06T05:30:53.837Z,5.45
2019-05-06T05:33:24.579Z,6.35
2019-05-06T05:35:55.651Z,5.53
2019-05-06T05:38:28.041Z,5.92
2019-05-06T05:41:03.046Z,5.75
2019-05-06T05:43:40.539Z,5.05
2019-05-06T05:46:12.715Z,6.78
2019-05-06T05:48:52.002Z,5.72
2019-05-06T05:51:22.964Z,6.67
2019-05-06T05:53:54.551Z,5.95
2019-05-06T05:56:25.086Z,5.33
2019-05-06T05:58:56.044Z,4.83
2019-05-06T06:01:27.308Z,4.37
2019-05-06T06:03:58.649Z,5.40
2019-05-06T06:06:30.164Z,4.75
2019-05-06T06:09:03.109Z,4.90
2019-05-06T06:11:38.933Z,5.08
2019-05-06T06:14:14.492Z,4.22
2019-05-06T06:16:52.693Z,5.62
2019-05-06T06:19:32.771Z,5.62
2019-05-06T06:22:05.747Z,5.37
2019-05-06T06:24:37.441Z,4.12
2019-05-06T06:27:08.300Z,4.30
2019-05-06T06:29:39.361Z,4.53
2019-05-06T06:32:13.789Z,3.25
2019-05-06T06:34:45.871Z,3.27
2019-05-06T06:37:33.416Z,3.83
2019-05-06T06:40:06.331Z,3.20
2019-05-06T06:42:37.178Z,2.95
2019-05-06T06:45:08.701Z,2.42
2019-05-06T06:47:39.602Z,3.50
2019-05-06T06:50:12.446Z,3.37
2019-05-06T06:52:43.701Z,2.22
2019-05-06T06:55:18.459Z,3.22
2019-05-06T06:57:53.133Z,2.20
2019-05-06T07:00:25.645Z,2.60
2019-05-06T07:02:58.939Z,2.83
2019-05-06T07:05:34.313Z,2.40
2019-05-06T07:08:05.254Z,2.85
2019-05-06T07:10:45.225Z,2.12
2019-05-06T07:13:16.919Z,3.12
2019-05-06T07:15:47.843Z,3.22
2019-05-06T07:18:18.822Z,3.25
2019-05-06T07:21:04.225Z,2.33
2019-05-06T07:23:38.122Z,2.08
2019-05-06T07:26:12.115Z,2.52
2019-05-06T07:28:43.605Z,2.60
2019-05-06T07:31:21.322Z,2.83
2019-05-06T07:33:47.261Z,2.05
2019-05-06T07:36:20.146Z,2.27
2019-05-06T07:38:52.560Z,1.82
2019-05-06T07:41:32.513Z,1.85
2019-05-06T07:44:12.811Z,2.08
2019-05-06T07:47:03.370Z,2.40
2019-05-06T07:49:34.225Z,2.20
2019-05-06T07:52:05.302Z,1.37
2019-05-06T07:54:36.550Z,1.52
2019-05-06T07:57:07.424Z,1.60
2019-05-06T07:59:38.486Z,1.75
2019-05-06T08:02:09.445Z,1.30
2019-05-06T08:04:42.059Z,1.60
2019-05-06T08:07:12.806Z,2.05
2019-05-06T08:09:43.937Z,2.00
2019-05-06T08:12:14.588Z,1.60
2019-05-06T08:14:45.563Z,1.85
2019-05-06T08:17:18.242Z,2.00
2019-05-06T08:19:49.628Z,1.50
2019-05-06T08:22:22.780Z,1.77
2019-05-06T08:24:53.693Z,1.70
2019-05-06T08:27:24.651Z,1.50
2019-05-06T08:29:55.610Z,1.50
2019-05-06T08:32:26.672Z,2.00
2019-05-06T08:34:57.935Z,1.75
2019-05-06T08:37:32.089Z,1.87
2019-05-06T08:40:03.440Z,1.15
2019-05-06T08:42:34.481Z,1.72
2019-05-06T08:45:13.013Z,1.90
2019-05-06T08:47:43.571Z,2.25
2019-05-06T08:50:21.827Z,2.02
2019-05-06T08:53:13.617Z,2.10
2019-05-06T08:55:44.961Z,2.02
2019-05-06T08:58:15.818Z,1.80
2019-05-06T09:00:57.344Z,2.02
2019-05-06T09:03:36.650Z,1.35
2019-05-06T09:06:07.837Z,1.70
2019-05-06T09:08:38.900Z,1.55
2019-05-06T09:11:12.114Z,1.47
2019-05-06T09:13:42.859Z,2.05
2019-05-06T09:16:13.816Z,1.90
2019-05-06T09:18:44.878Z,1.35
2019-05-06T09:21:15.717Z,1.57
2019-05-06T09:23:46.795Z,1.72
2019-05-06T09:26:23.377Z,1.50
2019-05-06T09:29:12.857Z,1.77
2019-05-06T09:31:48.001Z,1.30
2019-05-06T09:34:23.209Z,1.87
2019-05-06T09:37:13.580Z,1.40
2019-05-06T09:39:46.120Z,1.30
2019-05-06T09:42:17.204Z,1.27
2019-05-06T09:44:50.563Z,1.60
2019-05-06T09:47:25.761Z,1.52
2019-05-06T09:49:56.602Z,1.35
2019-05-06T09:52:27.560Z,1.65
2019-05-06T09:55:05.801Z,1.25
2019-05-06T09:57:56.905Z,1.40
2019-05-06T10:00:32.729Z,1.20
2019-05-06T10:03:03.721Z,1.07
2019-05-06T10:05:34.466Z,0.88
2019-05-06T10:08:05.740Z,1.07
2019-05-06T10:10:36.816Z,1.05
2019-05-06T10:13:08.679Z,1.00
2019-05-06T10:15:39.342Z,0.98
2019-05-06T10:18:13.256Z,1.00
2019-05-06T10:20:45.449Z,1.00
2019-05-06T10:23:16.511Z,1.12
2019-05-06T10:25:47.475Z,1.22
2019-05-06T10:28:20.064Z,0.98
2019-05-06T10:30:50.906Z,1.10
2019-05-06T10:33:23.557Z,1.32
2019-05-06T10:35:54.781Z,1.00
2019-05-06T10:42:13.100Z,1.27
2019-05-06T10:44:58.478Z,1.35
2019-05-06T10:47:29.426Z,1.30
2019-05-06T10:50:02.206Z,1.05
2019-05-06T10:52:34.626Z,0.88
2019-05-06T10:55:06.185Z,1.02
2019-05-06T10:57:40.364Z,1.20
2019-05-06T11:00:12.270Z,1.12
2019-05-06T11:02:52.403Z,1.02
2019-05-06T11:05:23.128Z,1.15
2019-05-06T11:07:54.185Z,1.27
2019-05-06T11:10:32.146Z,1.00
2019-05-06T11:12:57.636Z,1.30
2019-05-06T11:15:28.594Z,1.80
2019-05-06T11:17:59.454Z,1.75
2019-05-06T11:20:33.285Z,1.60
2019-05-06T11:23:02.799Z,1.50
2019-05-06T11:25:33.636Z,1.25
2019-05-06T11:28:06.350Z,1.40
2019-05-06T11:30:42.367Z,0.93
2019-05-06T11:33:32.775Z,1.57
2019-05-06T11:36:04.488Z,2.10
2019-05-06T11:38:35.546Z,1.60
2019-05-06T11:41:06.489Z,1.37
2019-05-06T11:43:37.565Z,1.17
2019-05-06T11:46:08.525Z,1.45
2019-05-06T11:48:39.380Z,1.00
2019-05-06T11:51:12.804Z,1.10
2019-05-06T11:53:43.532Z,1.15
2019-05-06T11:56:14.508Z,1.22
2019-05-06T11:58:49.846Z,0.70
2019-05-06T12:01:22.439Z,1.20
2019-05-06T12:03:53.397Z,0.78
2019-05-06T12:06:24.253Z,1.92
2019-05-06T12:08:55.317Z,1.67
2019-05-06T12:11:25.892Z,1.50
2019-05-06T12:13:56.721Z,0.85
2019-05-06T12:16:27.785Z,1.80
2019-05-06T12:18:59.863Z,1.60
2019-05-06T12:21:32.928Z,1.10
2019-05-06T12:24:03.333Z,0.82
2019-05-06T12:26:34.288Z,0.90
2019-05-06T12:29:05.231Z,1.10
2019-05-06T12:31:36.499Z,0.80
2019-05-06T12:34:07.044Z,1.00
2019-05-06T12:36:38.025Z,0.85
2019-05-06T12:39:19.039Z,0.93
2019-05-06T12:42:03.141Z,1.12
2019-05-06T12:44:35.711Z,1.35
2019-05-06T12:47:14.382Z,1.40
2019-05-06T12:49:45.446Z,0.72
2019-05-06T12:52:16.401Z,1.00
2019-05-06T12:54:47.259Z,0.93
2019-05-06T12:57:18.317Z,1.07
2019-05-06T12:59:49.155Z,0.88
2019-05-06T13:02:20.234Z,0.82
2019-05-06T13:04:57.629Z,0.80
2019-05-06T13:07:32.441Z,1.00
2019-05-06T13:12:33.882Z,1.45
2019-05-06T13:15:08.166Z,1.60
2019-05-06T13:17:38.869Z,1.15
2019-05-06T13:20:14.134Z,2.65
2019-05-06T13:22:46.906Z,4.17
2019-05-06T13:25:17.990Z,4.08
2019-05-06T13:27:48.940Z,1.75
2019-05-06T13:30:22.546Z,1.55
2019-05-06T13:33:04.065Z,0.88
2019-05-06T13:35:35.113Z,0.80
2019-05-06T13:38:05.953Z,1.62
2019-05-06T13:40:53.239Z,1.15
2019-05-06T13:43:12.941Z,1.20
2019-05-06T13:45:52.520Z,1.90
2019-05-06T13:48:32.435Z,2.00
2019-05-06T13:51:13.796Z,2.35
2019-05-06T13:53:46.304Z,1.10
2019-05-06T13:56:16.966Z,0.85
2019-05-06T13:58:48.004Z,0.90
2019-05-06T14:01:36.654Z,1.25
2019-05-06T14:04:07.821Z,0.90
2019-05-06T14:06:38.673Z,1.60
2019-05-06T14:09:25.606Z,1.20
2019-05-06T14:11:42.120Z,1.12
2019-05-06T14:14:13.188Z,1.10
2019-05-06T14:16:44.144Z,1.32
2019-05-06T14:19:15.000Z,1.60
2019-05-06T14:21:45.940Z,1.32
2019-05-06T14:24:17.526Z,2.17
2019-05-06T14:26:49.719Z,1.40
2019-05-06T14:29:32.922Z,1.32
2019-05-06T14:32:03.708Z,0.85
2019-05-06T14:34:34.643Z,0.82
2019-05-06T14:37:05.719Z,0.82
2019-05-06T14:39:52.199Z,0.88
2019-05-06T14:42:13.776Z,1.00
2019-05-06T14:44:44.718Z,1.30
2019-05-06T14:47:20.085Z,1.30
2019-05-06T14:49:53.009Z,1.00
2019-05-06T14:52:23.340Z,1.60
2019-05-06T14:54:58.586Z,1.30
2019-05-06T14:57:32.117Z,0.82
2019-05-06T15:00:04.188Z,1.17
2019-05-06T15:02:34.427Z,0.70
2019-05-06T15:05:07.013Z,1.05
2019-05-06T15:07:37.676Z,0.68
2019-05-06T15:10:21.924Z,0.50
2019-05-06T15:12:42.660Z,0.82
2019-05-06T15:15:14.029Z,0.80
2019-05-06T15:17:44.883Z,0.57
2019-05-06T15:20:16.029Z,0.72
2019-05-06T15:22:46.681Z,1.00
2019-05-06T15:25:17.863Z,0.95
2019-05-06T15:27:48.802Z,0.75
2019-05-06T15:30:23.022Z,0.60
2019-05-06T15:32:54.113Z,0.60
2019-05-06T15:35:33.170Z,0.72
2019-05-06T15:38:05.973Z,0.90
2019-05-06T15:40:36.946Z,0.57
2019-05-06T15:43:07.853Z,0.90
2019-05-06T15:45:38.926Z,1.17
2019-05-06T15:48:09.885Z,1.00
2019-05-06T15:50:45.347Z,0.78
2019-05-06T15:53:13.438Z,0.82
2019-05-06T15:55:44.331Z,0.90
2019-05-06T15:58:15.389Z,0.90
2019-05-06T16:00:46.641Z,0.60
2019-05-06T16:03:17.271Z,0.85
2019-05-06T16:05:48.742Z,0.70
2019-05-06T16:08:19.493Z,0.98
2019-05-06T16:10:55.240Z,1.05
2019-05-06T16:13:22.946Z,0.88
2019-05-06T16:15:54.310Z,1.35
2019-05-06T16:18:25.072Z,10.80
2019-05-06T16:20:57.671Z,0.90
2019-05-06T16:23:32.583Z,1.00
2019-05-06T16:26:03.261Z,0.82
2019-05-06T16:28:34.118Z,0.78
2019-05-06T16:31:05.180Z,0.72
2019-05-06T16:33:37.163Z,15.85
2019-05-06T16:36:08.121Z,1.98
2019-05-06T16:38:39.189Z,1.60
2019-05-06T16:41:13.179Z,1.00
2019-05-06T16:43:42.741Z,1.10
2019-05-06T16:46:13.768Z,1.00
2019-05-06T16:48:45.483Z,0.95
2019-05-06T16:51:16.325Z,0.93
2019-05-06T16:54:01.937Z,1.15
2019-05-06T16:56:36.735Z,1.10
2019-05-06T16:59:08.823Z,0.95
2019-05-06T17:01:42.613Z,1.40
2019-05-06T17:04:18.115Z,1.22
2019-05-06T17:06:51.865Z,2.15
2019-05-06T17:09:27.049Z,1.22
2019-05-06T17:11:54.979Z,1.60
2019-05-06T17:14:28.700Z,1.37
2019-05-06T17:16:59.762Z,1.70
2019-05-06T17:19:32.423Z,2.33
2019-05-06T17:22:03.236Z,4.00
2019-05-06T17:24:34.171Z,3.22
2019-05-06T17:27:05.433Z,3.27
2019-05-06T17:29:37.936Z,3.45
2019-05-06T17:32:11.971Z,3.62
2019-05-06T18:22:22.700Z,3.05
2019-05-06T18:24:54.392Z,3.17
2019-05-06T18:27:29.258Z,2.33
2019-05-06T18:30:15.102Z,1.40
2019-05-06T18:32:33.286Z,1.52
2019-05-06T18:35:08.100Z,1.60
2019-05-06T18:37:42.683Z,1.65
2019-05-06T18:40:19.439Z,1.40
2019-05-06T18:42:52.489Z,1.30
2019-05-06T18:45:26.123Z,1.70
2019-05-06T18:47:59.566Z,1.10
2019-05-06T18:50:33.096Z,1.22
2019-05-06T18:53:17.727Z,1.32
2019-05-06T18:55:58.167Z,1.67
2019-05-06T18:58:50.213Z,1.57
2019-05-06T19:01:24.888Z,2.22
2019-05-06T19:04:03.395Z,1.82
2019-05-06T19:06:39.750Z,1.62
2019-05-06T19:09:29.426Z,1.65
2019-05-06T19:12:07.073Z,1.37
2019-05-06T19:14:43.266Z,1.37
2019-05-06T19:17:22.488Z,1.75
2019-05-06T19:20:05.237Z,1.60
2019-05-06T19:22:43.598Z,1.80
2019-05-06T19:25:18.528Z,1.42
2019-05-06T19:27:58.488Z,1.60
2019-05-06T19:30:33.350Z,1.67
2019-05-06T19:33:07.147Z,1.72
2019-05-06T19:35:43.148Z,1.45
2019-05-06T19:38:21.666Z,1.60
2019-05-06T19:40:55.630Z,1.47
2019-05-06T19:43:29.826Z,1.40
2019-05-06T19:46:12.122Z,1.40
2019-05-06T19:48:52.426Z,1.37
2019-05-06T19:51:28.043Z,1.75
2019-05-06T19:54:02.718Z,1.20
2019-05-06T19:56:34.873Z,1.35
2019-05-06T19:59:07.586Z,1.40
2019-05-06T20:01:38.645Z,0.90
2019-05-06T20:04:13.174Z,1.50
2019-05-06T20:06:47.205Z,1.35
2019-05-06T20:09:22.073Z,1.10
2019-05-06T20:11:59.253Z,1.72
2019-05-06T20:14:30.316Z,1.32
2019-05-06T20:17:03.584Z,1.67
2019-05-06T20:19:34.132Z,1.45
2019-05-06T20:22:06.969Z,1.62
2019-05-06T20:24:37.623Z,1.70
2019-05-06T20:27:08.579Z,1.40
2019-05-06T20:29:39.747Z,1.40
2019-05-06T20:32:12.151Z,1.95
2019-05-06T20:34:43.048Z,2.05
2019-05-06T20:37:14.150Z,1.65
2019-05-06T20:39:45.003Z,1.85
2019-05-06T20:42:16.054Z,1.90
2019-05-06T20:44:47.024Z,1.75
2019-05-06T20:47:18.089Z,1.90
2019-05-06T20:49:49.040Z,2.08
2019-05-06T20:52:19.898Z,3.12
2019-05-06T20:54:50.960Z,2.95
2019-05-06T20:57:23.063Z,2.35
2019-05-06T20:59:54.006Z,3.08
2019-05-06T21:02:25.827Z,2.37
2019-05-06T21:04:57.534Z,2.80
2019-05-06T21:07:28.613Z,3.08
2019-05-06T21:09:59.576Z,2.90
2019-05-06T21:12:30.616Z,2.22
2019-05-06T21:15:02.333Z,1.82
2019-05-06T21:17:33.172Z,2.87
2019-05-06T21:20:05.298Z,3.42
2019-05-06T21:22:36.001Z,3.45
2019-05-06T21:25:10.117Z,3.15
2019-05-06T21:27:42.386Z,3.30
2019-05-06T21:30:13.686Z,3.00
2019-05-06T21:32:44.339Z,3.37
2019-05-06T21:35:15.174Z,3.45
2019-05-06T21:37:46.051Z,3.72
2019-05-06T21:40:17.008Z,2.22
2019-05-06T21:42:47.965Z,2.90
2019-05-06T21:45:37.127Z,3.25
2019-05-06T21:48:08.211Z,3.25
2019-05-06T21:50:39.026Z,3.55
2019-05-06T21:53:13.819Z,3.37
2019-05-06T21:55:42.393Z,3.58
2019-05-06T21:58:13.232Z,3.08
2019-05-06T22:00:52.670Z,2.90
2019-05-06T22:03:23.553Z,3.22
2019-05-06T22:05:54.737Z,3.20
2019-05-06T22:08:25.657Z,3.30
2019-05-06T22:10:56.513Z,3.05
2019-05-06T22:13:27.490Z,4.42
2019-05-06T22:15:58.446Z,3.72
2019-05-06T22:18:30.962Z,4.10
2019-05-06T22:21:09.057Z,3.52
2019-05-06T22:23:42.082Z,3.47
2019-05-06T22:26:16.104Z,4.20
2019-05-06T22:28:45.392Z,4.35
2019-05-06T22:31:16.366Z,4.17
2019-05-06T22:33:47.210Z,4.30
2019-05-06T22:36:18.166Z,3.10
2019-05-06T22:38:49.123Z,3.30
2019-05-06T22:41:20.406Z,3.87
2019-05-06T22:43:53.147Z,2.80
2019-05-06T22:46:23.737Z,3.35
2019-05-06T22:48:54.841Z,3.08
2019-05-06T22:51:25.754Z,3.15
2019-05-06T22:53:56.815Z,3.40
2019-05-06T22:56:27.797Z,3.62
2019-05-06T22:58:58.853Z,3.05
2019-05-06T23:01:32.508Z,3.50
2019-05-06T23:04:03.440Z,3.02
2019-05-06T23:06:34.490Z,2.95
2019-05-06T23:09:08.209Z,3.90
2019-05-06T23:11:39.376Z,3.27
2019-05-06T23:14:12.421Z,3.45
2019-05-06T23:16:42.703Z,2.87
2019-05-06T23:19:13.564Z,3.30
2019-05-06T23:21:44.638Z,2.60
2019-05-06T23:24:15.599Z,3.27
2019-05-06T23:26:46.659Z,2.95
2019-05-06T23:29:17.599Z,2.52
2019-05-06T23:31:48.484Z,2.83
2019-05-06T23:34:19.515Z,2.22
2019-05-06T23:37:02.964Z,2.33
2019-05-06T23:40:12.631Z,3.37
2019-05-06T23:43:22.068Z,3.70
2019-05-06T23:46:28.755Z,4.00
2019-05-06T23:49:36.228Z,3.65
2019-05-06T23:52:43.492Z,4.62
2019-05-06T23:55:51.955Z,4.47
2019-05-06T23:58:22.513Z,4.62
